Time,TemperatureF,DewpointF,PressureIn,WindDirection,WindDirectionDegrees,WindSpeedMPH,WindSpeedGustMPH,Humidity,HourlyPrecipIn,Conditions,Clouds,dailyrainin,SoftwareType,DateUTC
2013-03-26 00:02:00,32.0,19.0,-100.00,NW,325,7.0,11.0,58,-99.99,,,-99.99,,2013-03-26 05:02:00,
2013-03-26 00:12:00,32.0,19.0,-100.00,NW,325,7.0,11.0,58,-99.99,,,-99.99,,2013-03-26 05:12:00,
2013-03-26 00:32:00,32.0,18.0,-100.00,NW,320,9.0,14.0,56,-99.99,,,-99.99,,2013-03-26 05:32:00,
2013-03-26 00:42:00,32.0,18.0,-100.00,NW,320,9.0,14.0,56,-99.99,,,-99.99,,2013-03-26 05:42:00,
2013-03-26 00:52:00,32.0,18.0,-100.00,NW,320,9.0,14.0,56,-99.99,,,-99.99,,2013-03-26 05:52:00,
2013-03-26 01:02:00,32.0,18.0,-100.00,NW,320,9.0,14.0,56,-99.99,,,-99.99,,2013-03-26 06:02:00,
2013-03-26 01:12:00,32.0,18.0,-100.00,NW,320,9.0,14.0,56,-99.99,,,-99.99,,2013-03-26 06:12:00,
2013-03-26 01:32:00,31.0,18.0,-100.00,NW,325,9.0,17.0,57,-99.99,,,-99.99,,2013-03-26 06:32:00,
2013-03-26 01:43:00,31.0,18.0,-100.00,NW,325,9.0,17.0,57,-99.99,,,-99.99,,2013-03-26 06:43:00,
2013-03-26 01:52:00,31.0,18.0,-100.00,NW,325,9.0,17.0,57,-99.99,,,-99.99,,2013-03-26 06:52:00,
2013-03-26 02:02:00,31.0,18.0,-100.00,NW,325,9.0,17.0,57,-99.99,,,-99.99,,2013-03-26 07:02:00,
2013-03-26 02:12:00,31.0,18.0,-100.00,NW,325,9.0,17.0,57,-99.99,,,-99.99,,2013-03-26 07:12:00,
2013-03-26 02:33:00,31.0,17.0,-100.00,NW,320,8.0,12.0,58,-99.99,,,-99.99,,2013-03-26 07:33:00,
2013-03-26 02:43:00,31.0,17.0,-100.00,NW,320,8.0,12.0,58,-99.99,,,-99.99,,2013-03-26 07:43:00,
2013-03-26 02:53:00,31.0,17.0,-100.00,NW,320,8.0,12.0,58,-99.99,,,-99.99,,2013-03-26 07:53:00,
2013-03-26 03:02:00,31.0,17.0,-100.00,NW,320,8.0,12.0,58,-99.99,,,-99.99,,2013-03-26 08:02:00,
2013-03-26 03:12:00,31.0,17.0,-100.00,NW,320,8.0,12.0,58,-99.99,,,-99.99,,2013-03-26 08:12:00,
2013-03-26 04:33:00,30.0,17.0,-100.00,NW,315,7.0,10.0,60,-99.99,,,-99.99,,2013-03-26 09:33:00,
2013-03-26 04:43:00,30.0,17.0,-100.00,NW,315,7.0,10.0,60,-99.99,,,-99.99,,2013-03-26 09:43:00,
2013-03-26 04:52:00,30.0,17.0,-100.00,NW,315,7.0,10.0,60,-99.99,,,-99.99,,2013-03-26 09:52:00,
2013-03-26 05:02:00,30.0,17.0,-100.00,NW,315,7.0,10.0,60,-99.99,,,-99.99,,2013-03-26 10:02:00,
2013-03-26 05:12:00,30.0,17.0,-100.00,NW,315,7.0,10.0,60,-99.99,,,-99.99,,2013-03-26 10:12:00,
2013-03-26 05:33:00,30.0,17.0,-100.00,NW,315,6.0,9.0,60,-99.99,,,-99.99,,2013-03-26 10:33:00,
2013-03-26 05:43:00,30.0,17.0,-100.00,NW,315,6.0,9.0,60,-99.99,,,-99.99,,2013-03-26 10:43:00,
2013-03-26 05:53:00,30.0,17.0,-100.00,NW,315,6.0,9.0,60,-99.99,,,-99.99,,2013-03-26 10:53:00,
2013-03-26 06:03:00,30.0,17.0,-100.00,NW,315,6.0,9.0,60,-99.99,,,-99.99,,2013-03-26 11:03:00,
2013-03-26 06:12:00,30.0,17.0,-100.00,NW,315,6.0,9.0,60,-99.99,,,-99.99,,2013-03-26 11:12:00,
2013-03-26 06:33:00,29.0,17.0,-100.00,NW,320,6.0,7.0,60,-99.99,,,-99.99,,2013-03-26 11:33:00,
2013-03-26 06:43:00,29.0,17.0,-100.00,NW,320,6.0,7.0,60,-99.99,,,-99.99,,2013-03-26 11:43:00,
2013-03-26 06:52:00,29.0,17.0,-100.00,NW,320,6.0,7.0,60,-99.99,,,-99.99,,2013-03-26 11:52:00,
2013-03-26 07:03:00,29.0,17.0,-100.00,NW,320,6.0,7.0,60,-99.99,,,-99.99,,2013-03-26 12:03:00,
2013-03-26 07:12:00,29.0,17.0,-100.00,NW,320,6.0,7.0,60,-99.99,,,-99.99,,2013-03-26 12:12:00,
2013-03-26 07:32:00,29.0,17.0,-100.00,NW,320,4.0,7.0,60,-99.99,,,-99.99,,2013-03-26 12:32:00,
2013-03-26 07:43:00,29.0,17.0,-100.00,NW,320,4.0,7.0,60,-99.99,,,-99.99,,2013-03-26 12:43:00,
2013-03-26 07:52:00,29.0,17.0,-100.00,NW,320,4.0,7.0,60,-99.99,,,-99.99,,2013-03-26 12:52:00,
2013-03-26 08:03:00,29.0,17.0,-100.00,NW,320,4.0,7.0,60,-99.99,,,-99.99,,2013-03-26 13:03:00,
2013-03-26 08:12:00,29.0,17.0,-100.00,NW,320,4.0,7.0,60,-99.99,,,-99.99,,2013-03-26 13:12:00,
2013-03-26 08:32:00,30.0,17.0,-100.00,NW,320,4.0,7.0,59,-99.99,,,-99.99,,2013-03-26 13:32:00,
2013-03-26 08:42:00,30.0,17.0,-100.00,NW,320,4.0,7.0,59,-99.99,,,-99.99,,2013-03-26 13:42:00,
2013-03-26 08:52:00,30.0,17.0,-100.00,NW,320,4.0,7.0,59,-99.99,,,-99.99,,2013-03-26 13:52:00,
2013-03-26 09:02:00,30.0,17.0,-100.00,NW,320,4.0,7.0,59,-99.99,,,-99.99,,2013-03-26 14:02:00,
2013-03-26 09:11:00,30.0,17.0,-100.00,NW,320,4.0,7.0,59,-99.99,,,-99.99,,2013-03-26 14:11:00,
2013-03-26 09:42:00,31.0,17.0,-100.00,NW,310,9.0,12.0,58,-99.99,,,-99.99,,2013-03-26 14:42:00,
2013-03-26 09:53:00,31.0,17.0,-100.00,NW,310,9.0,12.0,58,-99.99,,,-99.99,,2013-03-26 14:53:00,
2013-03-26 10:02:00,31.0,17.0,-100.00,NW,310,9.0,12.0,58,-99.99,,,-99.99,,2013-03-26 15:02:00,
2013-03-26 10:12:00,31.0,17.0,-100.00,NW,310,9.0,12.0,58,-99.99,,,-99.99,,2013-03-26 15:12:00,
2013-03-26 10:33:00,33.0,18.0,-100.00,WNW,295,7.0,14.0,53,-99.99,,,-99.99,,2013-03-26 15:33:00,
2013-03-26 10:43:00,33.0,18.0,-100.00,WNW,295,7.0,14.0,53,-99.99,,,-99.99,,2013-03-26 15:43:00,
2013-03-26 10:53:00,33.0,18.0,-100.00,WNW,295,7.0,14.0,53,-99.99,,,-99.99,,2013-03-26 15:53:00,
2013-03-26 11:02:00,33.0,18.0,-100.00,WNW,295,7.0,14.0,53,-99.99,,,-99.99,,2013-03-26 16:02:00,
2013-03-26 11:12:00,33.0,18.0,-100.00,WNW,295,7.0,14.0,53,-99.99,,,-99.99,,2013-03-26 16:12:00,
2013-03-26 11:33:00,36.0,18.0,-100.00,NW,305,10.0,13.0,49,-99.99,,,-99.99,,2013-03-26 16:33:00,
2013-03-26 11:42:00,36.0,18.0,-100.00,NW,305,10.0,13.0,49,-99.99,,,-99.99,,2013-03-26 16:42:00,
2013-03-26 11:53:00,36.0,18.0,-100.00,NW,305,10.0,13.0,49,-99.99,,,-99.99,,2013-03-26 16:53:00,
2013-03-26 12:02:00,36.0,18.0,-100.00,NW,305,10.0,13.0,49,-99.99,,,-99.99,,2013-03-26 17:02:00,
2013-03-26 12:12:00,36.0,18.0,-100.00,NW,305,10.0,13.0,49,-99.99,,,-99.99,,2013-03-26 17:12:00,
2013-03-26 12:33:00,36.0,18.0,-100.00,NNW,330,11.0,18.0,48,-99.99,,,-99.99,,2013-03-26 17:33:00,
2013-03-26 12:42:00,36.0,18.0,-100.00,NNW,330,11.0,18.0,48,-99.99,,,-99.99,,2013-03-26 17:42:00,
2013-03-26 12:53:00,36.0,18.0,-100.00,NNW,330,11.0,18.0,48,-99.99,,,-99.99,,2013-03-26 17:53:00,
2013-03-26 13:02:00,36.0,18.0,-100.00,NNW,330,11.0,18.0,48,-99.99,,,-99.99,,2013-03-26 18:02:00,
2013-03-26 13:12:00,36.0,18.0,-100.00,NNW,330,11.0,18.0,48,-99.99,,,-99.99,,2013-03-26 18:12:00,
2013-03-26 13:34:00,37.0,20.0,-100.00,NW,325,11.0,18.0,49,-99.99,,,-99.99,,2013-03-26 18:34:00,
2013-03-26 13:42:00,37.0,20.0,-100.00,NW,325,11.0,18.0,49,-99.99,,,-99.99,,2013-03-26 18:42:00,
2013-03-26 13:53:00,37.0,20.0,-100.00,NW,325,11.0,18.0,49,-99.99,,,-99.99,,2013-03-26 18:53:00,
2013-03-26 14:02:00,37.0,20.0,-100.00,NW,325,11.0,18.0,49,-99.99,,,-99.99,,2013-03-26 19:02:00,
2013-03-26 14:12:00,37.0,20.0,-100.00,NW,325,11.0,18.0,49,-99.99,,,-99.99,,2013-03-26 19:12:00,
2013-03-26 14:33:00,39.0,20.0,-100.00,NNW,340,8.0,14.0,47,-99.99,,,-99.99,,2013-03-26 19:33:00,
2013-03-26 14:42:00,39.0,20.0,-100.00,NNW,340,8.0,14.0,47,-99.99,,,-99.99,,2013-03-26 19:42:00,
2013-03-26 14:53:00,39.0,20.0,-100.00,NNW,340,8.0,14.0,47,-99.99,,,-99.99,,2013-03-26 19:53:00,
2013-03-26 15:02:00,39.0,20.0,-100.00,NNW,340,8.0,14.0,47,-99.99,,,-99.99,,2013-03-26 20:02:00,
2013-03-26 15:12:00,39.0,20.0,-100.00,NNW,340,8.0,14.0,47,-99.99,,,-99.99,,2013-03-26 20:12:00,
2013-03-26 15:32:00,39.0,19.0,-100.00,NNW,330,9.0,17.0,44,-99.99,,,-99.99,,2013-03-26 20:32:00,
2013-03-26 15:43:00,39.0,19.0,-100.00,NNW,330,9.0,17.0,44,-99.99,,,-99.99,,2013-03-26 20:43:00,
2013-03-26 15:52:00,39.0,19.0,-100.00,NNW,330,9.0,17.0,44,-99.99,,,-99.99,,2013-03-26 20:52:00,
2013-03-26 16:02:00,39.0,19.0,-100.00,NNW,330,9.0,17.0,44,-99.99,,,-99.99,,2013-03-26 21:02:00,
2013-03-26 16:12:00,39.0,19.0,-100.00,NNW,330,9.0,17.0,44,-99.99,,,-99.99,,2013-03-26 21:12:00,
2013-03-26 16:33:00,39.0,18.0,-100.00,NNW,335,7.0,14.0,44,-99.99,,,-99.99,,2013-03-26 21:33:00,
2013-03-26 16:43:00,39.0,18.0,-100.00,NNW,335,7.0,14.0,44,-99.99,,,-99.99,,2013-03-26 21:43:00,
2013-03-26 16:52:00,39.0,18.0,-100.00,NNW,335,7.0,14.0,44,-99.99,,,-99.99,,2013-03-26 21:52:00,
2013-03-26 17:02:00,39.0,18.0,-100.00,NNW,335,7.0,14.0,44,-99.99,,,-99.99,,2013-03-26 22:02:00,
2013-03-26 17:12:00,39.0,18.0,-100.00,NNW,335,7.0,14.0,44,-99.99,,,-99.99,,2013-03-26 22:12:00,
2013-03-26 17:33:00,38.0,18.0,-100.00,WNW,295,7.0,11.0,44,-99.99,,,-99.99,,2013-03-26 22:33:00,
2013-03-26 17:42:00,38.0,18.0,-100.00,WNW,295,7.0,11.0,44,-99.99,,,-99.99,,2013-03-26 22:42:00,
2013-03-26 17:52:00,38.0,18.0,-100.00,WNW,295,7.0,11.0,44,-99.99,,,-99.99,,2013-03-26 22:52:00,
2013-03-26 18:01:00,38.0,18.0,-100.00,WNW,295,7.0,11.0,44,-99.99,,,-99.99,,2013-03-26 23:01:00,
2013-03-26 18:10:00,38.0,18.0,-100.00,WNW,295,7.0,11.0,44,-99.99,,,-99.99,,2013-03-26 23:10:00,
2013-03-26 18:32:00,37.0,17.0,-100.00,NW,310,4.0,11.0,45,-99.99,,,-99.99,,2013-03-26 23:32:00,
2013-03-26 18:43:00,37.0,17.0,-100.00,NW,310,4.0,11.0,45,-99.99,,,-99.99,,2013-03-26 23:43:00,
2013-03-26 18:53:00,37.0,17.0,-100.00,NW,310,4.0,11.0,45,-99.99,,,-99.99,,2013-03-26 23:53:00,
2013-03-26 19:02:00,37.0,17.0,-100.00,NW,310,4.0,11.0,45,-99.99,,,-99.99,,2013-03-27 00:02:00,
2013-03-26 19:12:00,37.0,17.0,-100.00,NW,310,4.0,11.0,45,-99.99,,,-99.99,,2013-03-27 00:12:00,
2013-03-26 19:42:00,36.0,17.0,-100.00,NW,305,5.0,8.0,47,-99.99,,,-99.99,,2013-03-27 00:42:00,
2013-03-26 19:52:00,36.0,17.0,-100.00,NW,305,5.0,8.0,47,-99.99,,,-99.99,,2013-03-27 00:52:00,
2013-03-26 20:02:00,36.0,17.0,-100.00,NW,305,5.0,8.0,47,-99.99,,,-99.99,,2013-03-27 01:02:00,
2013-03-26 20:12:00,36.0,17.0,-100.00,NW,305,5.0,8.0,47,-99.99,,,-99.99,,2013-03-27 01:12:00,
2013-03-26 20:33:00,34.0,18.0,-100.00,WNW,295,3.0,6.0,50,-99.99,,,-99.99,,2013-03-27 01:33:00,
2013-03-26 20:43:00,34.0,18.0,-100.00,WNW,295,3.0,6.0,50,-99.99,,,-99.99,,2013-03-27 01:43:00,
2013-03-26 20:53:00,34.0,18.0,-100.00,WNW,295,3.0,6.0,50,-99.99,,,-99.99,,2013-03-27 01:53:00,
2013-03-26 21:03:00,34.0,18.0,-100.00,WNW,295,3.0,6.0,50,-99.99,,,-99.99,,2013-03-27 02:03:00,
2013-03-26 21:12:00,34.0,18.0,-100.00,WNW,295,3.0,6.0,50,-99.99,,,-99.99,,2013-03-27 02:12:00,
2013-03-26 21:32:00,33.0,18.0,-100.00,NW,305,2.0,6.0,52,-99.99,,,-99.99,,2013-03-27 02:32:00,
2013-03-26 21:42:00,33.0,18.0,-100.00,NW,305,2.0,6.0,52,-99.99,,,-99.99,,2013-03-27 02:42:00,
2013-03-26 21:53:00,33.0,18.0,-100.00,NW,305,2.0,6.0,52,-99.99,,,-99.99,,2013-03-27 02:53:00,
2013-03-26 22:02:00,33.0,18.0,-100.00,NW,305,2.0,6.0,52,-99.99,,,-99.99,,2013-03-27 03:02:00,
2013-03-26 22:12:00,33.0,18.0,-100.00,NW,305,2.0,6.0,52,-99.99,,,-99.99,,2013-03-27 03:12:00,
2013-03-26 22:33:00,34.0,17.0,-100.00,NW,315,4.0,6.0,49,-99.99,,,-99.99,,2013-03-27 03:33:00,
2013-03-26 22:43:00,34.0,17.0,-100.00,NW,315,4.0,6.0,49,-99.99,,,-99.99,,2013-03-27 03:43:00,
2013-03-26 22:53:00,34.0,17.0,-100.00,NW,315,4.0,6.0,49,-99.99,,,-99.99,,2013-03-27 03:53:00,
2013-03-26 23:02:00,34.0,17.0,-100.00,NW,315,4.0,6.0,49,-99.99,,,-99.99,,2013-03-27 04:02:00,
2013-03-26 23:12:00,34.0,17.0,-100.00,NW,315,4.0,6.0,49,-99.99,,,-99.99,,2013-03-27 04:12:00,
2013-03-26 23:33:00,33.0,17.0,-100.00,WNW,300,5.0,6.0,50,-99.99,,,-99.99,,2013-03-27 04:33:00,
2013-03-26 23:43:00,33.0,17.0,-100.00,WNW,300,5.0,6.0,50,-99.99,,,-99.99,,2013-03-27 04:43:00,
2013-03-26 23:52:00,33.0,17.0,-100.00,WNW,300,5.0,6.0,50,-99.99,,,-99.99,,2013-03-27 04:52:00,